Mohrsville, PA (19541)

4:12 PM EDT on June 26, 2017 (GMT -0400)
Shoemakersville | | Change Station

Elev 356 ft 40.50 °N, 75.97 °W | Updated 14 seconds ago

Partly Cloudy
Partly Cloudy
78.1 °F
Feels Like 77 °F
N
6.5
Wind Variable Wind from WSW
Gusts 9.8 mph

Today
High -- | Low -- °F
--% Chance of Precip.
Yesterday
High -- | Low -- °F
Precip. -- in
Pressure 30.01 in
Visibility 10.0 miles
Clouds Scattered Clouds 8000 ft
Scattered Clouds 9500 ft
Heat Index 77 °F
Dew Point 17 °F
Humidity 10%
Rainfall 0.00 in
Snow Depth Not available.
5:35 AM 8:38 PM
Waxing Crescent, 11% visible
METAR KRDG 261954Z AUTO 25008G16KT 10SM SCT080 SCT095 26/11 A3000 RMK AO2 SLP162 T02560106
Pressure 30.01 in
Visibility 10.0 miles
Clouds Scattered Clouds 8000 ft
Scattered Clouds 9500 ft
Heat Index 77 °F
Dew Point 17 °F
Humidity 10%
Rainfall 0.00 in
Snow Depth Not available.
5:35 AM 8:38 PM
Waxing Crescent, 11% visible
METAR KRDG 261954Z AUTO 25008G16KT 10SM SCT080 SCT095 26/11 A3000 RMK AO2 SLP162 T02560106

Get Severe Weather Alerts

Thanks for signing up!

Be on the lookout for a verification email in your inbox.

You'll start receiving the daily forecast at 6 AM.

×

10-Day Weather Forecast

Almanac

Astronomy

Jun. 26, 2017 Rise Set
Actual Time
Civil Twilight
Nautical Twilight
Astronomical Twilight
Moon
Length of Visible Light
Length of Day
Tomorrow will be .
, % of the Moon is Illuminated

Today's Extremes

State Highs State Lows

Community

WunderPhotos

Category 6

Welcome to Category 6. This is the collective home for Weather Underground's featured writeups by Dr. Jeff Masters (right), Bob Henson (left), Chris Burt, and other regular contributors.

Nearby

Air Quality

  Air Quality AQ Index Pollutant
Not available.

Snow Depth

Station Depth Elevation

Earthquake Activity

City Distance Mag. Time & Date
Minimum magnitude displayed is 2.5.

Coastal Water Temperatures

Place Temperature

Stations

Nearby Weather Stations

Station Location Temp. Windchill Dew Point Humidity Wind Precip. Elev Updated Type
                   

Watches & Warnings

There are currently no watches in effect.